createdAt,value
2022-08-27T00:03:00.277Z,4.28
2022-08-27T00:06:42.387Z,5.18
2022-08-27T00:10:28.117Z,5.25
2022-08-27T00:14:10.106Z,4.65
2022-08-27T00:17:52.456Z,5.00
2022-08-27T00:21:34.666Z,5.00
2022-08-27T00:25:16.860Z,4.13
2022-08-27T00:28:58.857Z,5.00
2022-08-27T00:32:41.161Z,4.97
2022-08-27T00:36:24.272Z,6.90
2022-08-27T00:40:08.902Z,5.90
2022-08-27T00:43:54.276Z,4.78
2022-08-27T00:47:41.402Z,5.15
2022-08-27T00:51:24.560Z,6.50
2022-08-27T00:55:12.133Z,6.43
2022-08-27T00:58:55.539Z,5.68
2022-08-27T01:02:38.224Z,5.53
2022-08-27T01:06:22.022Z,5.18
2022-08-27T01:10:07.423Z,5.97
2022-08-27T01:14:00.390Z,5.93
2022-08-27T01:17:44.366Z,4.93
2022-08-27T01:21:33.041Z,5.85
2022-08-27T01:25:17.348Z,3.83
2022-08-27T01:28:59.939Z,4.18
2022-08-27T01:32:43.687Z,4.38
2022-08-27T01:36:25.911Z,4.57
2022-08-27T01:40:08.913Z,4.33
2022-08-27T01:43:52.077Z,4.85
2022-08-27T01:47:35.823Z,4.63
2022-08-27T01:51:18.114Z,4.50
2022-08-27T01:55:00.489Z,5.25
2022-08-27T01:58:43.788Z,6.47
2022-08-27T02:02:26.057Z,5.25
2022-08-27T02:06:10.659Z,5.40
2022-08-27T02:09:52.682Z,4.00
2022-08-27T02:13:34.987Z,4.88
2022-08-27T02:17:17.023Z,4.13
2022-08-27T02:20:58.959Z,4.18
2022-08-27T02:24:42.205Z,4.57
2022-08-27T02:28:24.147Z,3.73
2022-08-27T02:32:06.567Z,4.82
2022-08-27T02:35:48.553Z,3.38
2022-08-27T02:39:30.546Z,4.38
2022-08-27T02:43:15.828Z,4.25
2022-08-27T02:46:59.483Z,4.40
2022-08-27T02:50:42.411Z,4.45
2022-08-27T02:54:26.414Z,4.50
2022-08-27T02:58:09.790Z,4.50
2022-08-27T03:01:52.162Z,3.67
2022-08-27T03:05:34.251Z,3.37
2022-08-27T03:09:16.289Z,3.50
2022-08-27T03:12:58.424Z,4.25
2022-08-27T03:16:40.471Z,5.78
2022-08-27T03:20:23.460Z,8.00
2022-08-27T03:24:09.585Z,6.47
2022-08-27T03:27:53.408Z,4.43
2022-08-27T03:31:35.362Z,4.13
2022-08-27T03:35:17.942Z,3.83
2022-08-27T03:39:00.120Z,3.92
2022-08-27T03:42:43.520Z,3.83
2022-08-27T03:46:30.339Z,4.43
2022-08-27T03:50:12.812Z,3.58
2022-08-27T03:53:54.955Z,3.85
2022-08-27T03:57:37.200Z,3.40
2022-08-27T04:01:19.539Z,4.60
2022-08-27T04:05:01.640Z,3.75
2022-08-27T04:08:43.659Z,3.50
2022-08-27T04:12:27.214Z,3.45
2022-08-27T04:16:09.288Z,3.90
2022-08-27T04:19:54.316Z,3.60
2022-08-27T04:23:36.392Z,4.10
2022-08-27T04:27:19.241Z,4.13
2022-08-27T04:31:03.425Z,4.38
2022-08-27T04:34:45.424Z,4.13
2022-08-27T04:38:27.837Z,4.47
2022-08-27T04:42:09.895Z,4.80
2022-08-27T04:45:52.117Z,5.00
2022-08-27T04:49:34.267Z,5.72
2022-08-27T04:53:17.952Z,5.80
2022-08-27T04:57:00.544Z,5.03
2022-08-27T05:00:44.403Z,4.70
2022-08-27T05:04:26.613Z,4.15
2022-08-27T05:08:10.795Z,4.75
2022-08-27T05:11:54.455Z,4.55
2022-08-27T05:15:36.858Z,4.20
2022-08-27T05:19:18.910Z,4.50
2022-08-27T05:23:01.005Z,4.73
2022-08-27T05:26:43.149Z,3.80
2022-08-27T05:30:25.701Z,3.75
2022-08-27T05:34:10.623Z,3.60
2022-08-27T05:37:56.964Z,5.55
2022-08-27T05:41:39.803Z,5.25
2022-08-27T05:45:22.337Z,4.28
2022-08-27T05:49:04.414Z,4.80
2022-08-27T05:52:46.324Z,4.00
2022-08-27T05:56:30.929Z,4.30
2022-08-27T06:01:05.037Z,4.10
2022-08-27T06:04:55.211Z,4.40
2022-08-27T06:08:56.399Z,4.28
2022-08-27T06:12:48.478Z,4.33
2022-08-27T06:22:10.496Z,4.57
2022-08-27T06:25:53.627Z,5.60
2022-08-27T06:29:44.918Z,5.10
2022-08-27T06:33:43.097Z,4.20
2022-08-27T06:37:37.258Z,4.20
2022-08-27T06:41:37.550Z,7.20
2022-08-27T06:45:28.695Z,5.75
2022-08-27T06:49:27.483Z,4.97
2022-08-27T06:53:24.310Z,4.17
2022-08-27T06:57:24.281Z,5.25
2022-08-27T07:01:22.403Z,5.22
2022-08-27T07:05:16.779Z,5.72
2022-08-27T07:09:09.664Z,7.47
2022-08-27T07:13:10.166Z,4.78
2022-08-27T07:17:01.712Z,5.25
2022-08-27T07:20:46.896Z,4.63
2022-08-27T07:24:33.093Z,4.15
2022-08-27T07:28:16.867Z,5.10
2022-08-27T07:32:03.358Z,4.47
2022-08-27T07:35:49.514Z,6.95
2022-08-27T07:39:34.826Z,6.93
2022-08-27T07:43:41.077Z,6.97
2022-08-27T07:47:26.895Z,9.17
2022-08-27T07:51:57.053Z,7.90
2022-08-27T07:55:42.159Z,7.88
2022-08-27T07:59:27.524Z,6.27
2022-08-27T08:03:13.391Z,8.88
2022-08-27T08:06:58.671Z,8.23
2022-08-27T08:10:43.746Z,8.30
2022-08-27T08:14:32.795Z,8.77
2022-08-27T08:22:22.890Z,7.40
2022-08-27T08:26:28.755Z,5.87
2022-08-27T08:30:14.938Z,6.05
2022-08-27T08:34:22.914Z,7.40
2022-08-27T08:38:09.259Z,9.43
2022-08-27T08:42:38.368Z,5.78
2022-08-27T08:47:07.301Z,6.57
2022-08-27T08:51:15.614Z,7.80
2022-08-27T08:59:46.116Z,6.90
2022-08-27T09:04:03.398Z,7.80
2022-08-27T09:08:32.043Z,6.80
2022-08-27T09:16:27.785Z,8.45
2022-08-27T09:20:34.473Z,6.90
2022-08-27T09:24:24.883Z,6.60
2022-08-27T09:28:47.484Z,9.63
2022-08-27T09:32:55.546Z,5.13
2022-08-27T09:37:34.017Z,6.37
2022-08-27T09:41:26.350Z,6.10
2022-08-27T09:45:21.792Z,7.80
2022-08-27T09:49:19.031Z,8.45
2022-08-27T09:53:12.623Z,6.20
2022-08-27T09:56:59.205Z,6.45
2022-08-27T10:01:07.816Z,6.50
2022-08-27T10:19:07.010Z,5.40
2022-08-27T10:23:38.026Z,7.15
2022-08-27T10:28:07.664Z,6.95
2022-08-27T10:37:07.919Z,6.57
2022-08-27T10:41:39.709Z,4.70
2022-08-27T10:50:40.724Z,7.60
2022-08-27T10:59:39.748Z,4.28
2022-08-27T11:08:39.797Z,4.15
2022-08-27T11:17:42.954Z,4.85
2022-08-27T11:22:12.819Z,6.32
2022-08-27T11:31:12.637Z,4.32
2022-08-27T11:53:52.250Z,5.25
2022-08-27T12:02:44.341Z,5.57
2022-08-27T12:11:47.184Z,4.47
2022-08-27T12:16:15.033Z,5.30
2022-08-27T12:25:17.246Z,3.55
2022-08-27T12:29:47.042Z,4.13
2022-08-27T12:34:17.623Z,4.60
2022-08-27T12:43:19.152Z,4.88
2022-08-27T12:47:50.871Z,5.38
2022-08-27T12:52:21.326Z,3.83
2022-08-27T13:05:50.863Z,3.67
2022-08-27T13:13:43.664Z,3.58
2022-08-27T13:49:45.616Z,3.93
2022-08-27T13:54:16.303Z,3.20
2022-08-27T13:58:47.343Z,3.92
2022-08-27T14:12:18.504Z,6.53
2022-08-27T14:25:49.609Z,3.83
2022-08-27T14:34:48.429Z,4.47
2022-08-27T14:39:18.446Z,5.35
2022-08-27T14:48:28.774Z,5.83
2022-08-27T14:57:22.770Z,7.38
2022-08-27T15:01:52.733Z,5.00
2022-08-27T15:06:23.746Z,4.97
2022-08-27T15:10:53.559Z,4.95
2022-08-27T15:15:23.751Z,5.50
2022-08-27T15:19:53.583Z,5.07
2022-08-27T15:28:53.036Z,3.40
2022-08-27T15:37:55.657Z,4.80
2022-08-27T15:42:25.862Z,5.20
2022-08-27T15:46:55.664Z,6.45
2022-08-27T15:55:56.189Z,4.30
2022-08-27T16:04:55.678Z,4.47
2022-08-27T16:13:56.723Z,3.78
2022-08-27T16:27:28.875Z,5.05
2022-08-27T16:32:01.111Z,5.47
2022-08-27T16:40:58.826Z,4.88
2022-08-27T16:45:30.206Z,4.05
2022-08-27T16:50:00.029Z,5.20
2022-08-27T16:54:30.868Z,4.10
2022-08-27T16:59:01.135Z,4.82
2022-08-27T17:12:31.904Z,5.05
2022-08-27T17:17:01.920Z,5.65
2022-08-27T17:21:31.953Z,8.93
2022-08-27T17:26:01.960Z,5.28
2022-08-27T17:30:34.017Z,4.70
2022-08-27T17:39:34.015Z,5.55
2022-08-27T17:44:04.197Z,5.10
2022-08-27T17:53:04.064Z,5.63
2022-08-27T17:57:40.440Z,5.25
2022-08-27T18:25:45.606Z,5.60
2022-08-27T18:43:47.582Z,4.85
2022-08-27T18:48:16.412Z,4.68
2022-08-27T19:09:30.853Z,7.15
2022-08-27T19:13:13.176Z,4.72
2022-08-27T19:16:56.140Z,5.03
2022-08-27T19:20:38.261Z,5.28
2022-08-27T19:24:21.553Z,6.50
2022-08-27T19:28:03.648Z,5.78
2022-08-27T19:31:45.994Z,4.97
2022-08-27T19:35:28.008Z,6.28
2022-08-27T19:39:12.852Z,6.40
2022-08-27T19:42:54.836Z,13.50
2022-08-27T19:46:37.876Z,12.57
2022-08-27T19:50:20.352Z,5.88
2022-08-27T19:54:02.297Z,5.10
2022-08-27T19:57:44.887Z,6.47
2022-08-27T20:01:27.691Z,5.25
2022-08-27T20:05:18.699Z,6.18
2022-08-27T20:09:10.337Z,5.45
2022-08-27T20:12:52.643Z,6.57
2022-08-27T20:16:36.521Z,6.25
2022-08-27T20:20:22.438Z,4.00
2022-08-27T20:24:04.531Z,6.57
2022-08-27T20:27:47.800Z,5.40
2022-08-27T20:31:30.499Z,4.10
2022-08-27T20:35:13.034Z,4.43
2022-08-27T20:38:55.279Z,4.40
2022-08-27T20:42:38.001Z,4.65
2022-08-27T20:46:24.512Z,4.40
2022-08-27T20:50:07.203Z,6.53
2022-08-27T20:53:49.634Z,4.72
2022-08-27T20:57:31.569Z,5.67
2022-08-27T21:01:13.875Z,4.53
2022-08-27T21:04:56.967Z,5.75
2022-08-27T21:08:39.532Z,8.53
2022-08-27T21:12:22.832Z,5.93
2022-08-27T21:16:05.115Z,6.43
2022-08-27T21:19:47.420Z,6.43
2022-08-27T21:23:30.566Z,5.93
2022-08-27T21:27:12.479Z,6.80
2022-08-27T21:30:54.420Z,9.18
2022-08-27T21:34:36.679Z,7.03
2022-08-27T21:38:18.596Z,5.82
2022-08-27T21:42:01.866Z,5.93
2022-08-27T21:45:44.031Z,5.93
2022-08-27T21:49:26.004Z,6.57
2022-08-27T21:53:07.986Z,5.75
2022-08-27T21:56:49.886Z,8.02
2022-08-27T22:00:45.585Z,8.43
2022-08-27T22:04:29.839Z,6.38
2022-08-27T22:08:15.827Z,9.65
2022-08-27T22:11:57.740Z,5.90
2022-08-27T22:15:40.109Z,7.20
2022-08-27T22:19:22.507Z,7.63
2022-08-27T22:23:10.406Z,7.50
2022-08-27T22:26:52.844Z,7.30
2022-08-27T22:30:34.731Z,6.97
2022-08-27T22:34:17.188Z,9.70
2022-08-27T22:37:59.225Z,6.45
2022-08-27T22:41:41.791Z,7.82
2022-08-27T22:45:28.080Z,6.88
2022-08-27T22:49:10.288Z,7.50
2022-08-27T22:52:53.095Z,9.68
2022-08-27T22:56:35.909Z,6.38
2022-08-27T23:00:21.859Z,7.37
2022-08-27T23:04:06.471Z,8.05
2022-08-27T23:07:48.778Z,8.15
2022-08-27T23:11:31.881Z,6.65
2022-08-27T23:15:16.961Z,8.65
2022-08-27T23:18:58.948Z,8.52
2022-08-27T23:22:41.386Z,7.72
2022-08-27T23:26:42.209Z,6.20
2022-08-27T23:30:26.362Z,6.75
2022-08-27T23:34:08.554Z,5.32
2022-08-27T23:37:51.387Z,8.17
2022-08-27T23:41:33.377Z,8.00
2022-08-27T23:45:22.689Z,6.75
2022-08-27T23:49:04.821Z,6.30
2022-08-27T23:52:47.744Z,7.20
2022-08-27T23:56:29.919Z,5.00
